DCAIR EDDG-EDDK
Flight info
| Callsign | DCAIR |
|---|---|
| Flight time | 0h 30m |
| Altitude | 17000 |
| Route | DOMEG1W DOMEG Z841 GMH/N0304F160 DCT KOPAG KOPAG1K |
| Aircraft | B350/L-SBGRW/S |
Departure
| Time | 2026-04-17 21:28 |
|---|---|
| Airport | Münster Osnabrück Airport (EDDG) |
Arrival
| Time | 2026-04-17 21:58 |
|---|---|
| Airport | Cologne Bonn Airport (EDDK) |
| Time | Latitude | Longitude | Altitude | Speed | Heading |
|---|---|---|---|---|---|
| 2026-04-17 21:11 | 52.13124 | 7.68614 | 162 ft | 0 kts | 271° |
| 2026-04-17 21:21 | 52.13124 | 7.68613 | 162 ft | 0 kts | 271° |
| 2026-04-17 21:26 | 52.13124 | 7.68561 | 162 ft | 8 kts | 269° |
| 2026-04-17 21:26 | 52.13103 | 7.68453 | 162 ft | 12 kts | 273° |
| 2026-04-17 21:27 | 52.13179 | 7.68362 | 162 ft | 15 kts | 340° |
| 2026-04-17 21:27 | 52.13275 | 7.68310 | 162 ft | 12 kts | 339° |
| 2026-04-17 21:27 | 52.13322 | 7.68283 | 162 ft | 2 kts | 342° |
| 2026-04-17 21:27 | 52.13338 | 7.68274 | 162 ft | 4 kts | 340° |
| 2026-04-17 21:28 | 52.13392 | 7.68242 | 161 ft | 11 kts | 327° |
| 2026-04-17 21:28 | 52.13374 | 7.68060 | 161 ft | 40 kts | 251° |
| 2026-04-17 21:28 | 52.13164 | 7.67117 | 227 ft | 120 kts | 248° |
| 2026-04-17 21:28 | 52.12781 | 7.65879 | 791 ft | 130 kts | 239° |
| 2026-04-17 21:29 | 52.12086 | 7.64714 | 1262 ft | 161 kts | 208° |
| 2026-04-17 21:29 | 52.10970 | 7.64202 | 1879 ft | 177 kts | 189° |
| 2026-04-17 21:29 | 52.09738 | 7.64015 | 2671 ft | 181 kts | 184° |
| 2026-04-17 21:29 | 52.08499 | 7.63896 | 3525 ft | 179 kts | 185° |
| 2026-04-17 21:30 | 52.07294 | 7.63760 | 4350 ft | 177 kts | 186° |
| 2026-04-17 21:30 | 52.06091 | 7.63611 | 5140 ft | 175 kts | 187° |
| 2026-04-17 21:30 | 52.04890 | 7.63454 | 5893 ft | 175 kts | 187° |
| 2026-04-17 21:30 | 52.03685 | 7.63291 | 6630 ft | 174 kts | 187° |
| 2026-04-17 21:31 | 52.02487 | 7.63126 | 7319 ft | 175 kts | 188° |
| 2026-04-17 21:31 | 52.01284 | 7.62959 | 7974 ft | 176 kts | 188° |
| 2026-04-17 21:31 | 52.00069 | 7.62789 | 8604 ft | 177 kts | 188° |
| 2026-04-17 21:31 | 51.98849 | 7.62619 | 9256 ft | 182 kts | 188° |
| 2026-04-17 21:32 | 51.97586 | 7.62443 | 10009 ft | 184 kts | 188° |
| 2026-04-17 21:32 | 51.96336 | 7.62269 | 10756 ft | 184 kts | 188° |
| 2026-04-17 21:32 | 51.95057 | 7.62090 | 11486 ft | 185 kts | 188° |
| 2026-04-17 21:32 | 51.93804 | 7.61914 | 12164 ft | 185 kts | 188° |
| 2026-04-17 21:33 | 51.92516 | 7.61734 | 12820 ft | 187 kts | 189° |
| 2026-04-17 21:33 | 51.91230 | 7.61554 | 13451 ft | 188 kts | 189° |
| 2026-04-17 21:33 | 51.89919 | 7.61370 | 14068 ft | 189 kts | 189° |
| 2026-04-17 21:33 | 51.88619 | 7.61188 | 14666 ft | 192 kts | 189° |
| 2026-04-17 21:34 | 51.87273 | 7.61001 | 15389 ft | 196 kts | 189° |
| 2026-04-17 21:34 | 51.85929 | 7.60815 | 16165 ft | 195 kts | 189° |
| 2026-04-17 21:34 | 51.83189 | 7.60427 | 17169 ft | 220 kts | 189° |
| 2026-04-17 21:35 | 51.81572 | 7.60196 | 17208 ft | 252 kts | 189° |
| 2026-04-17 21:35 | 51.79709 | 7.59934 | 17221 ft | 279 kts | 188° |
| 2026-04-17 21:35 | 51.77713 | 7.59656 | 17210 ft | 301 kts | 188° |
| 2026-04-17 21:35 | 51.75584 | 7.59361 | 17193 ft | 311 kts | 188° |
| 2026-04-17 21:36 | 51.73391 | 7.59059 | 17192 ft | 317 kts | 187° |
| 2026-04-17 21:36 | 51.71165 | 7.59114 | 17184 ft | 321 kts | 177° |
| 2026-04-17 21:36 | 51.68993 | 7.59849 | 17179 ft | 324 kts | 166° |
| 2026-04-17 21:36 | 51.66836 | 7.61056 | 17187 ft | 325 kts | 163° |
| 2026-04-17 21:37 | 51.64719 | 7.62274 | 17189 ft | 325 kts | 163° |
| 2026-04-17 21:37 | 51.62572 | 7.63505 | 17188 ft | 325 kts | 163° |
| 2026-04-17 21:37 | 51.60445 | 7.64725 | 17187 ft | 325 kts | 163° |
| 2026-04-17 21:37 | 51.58315 | 7.65942 | 17188 ft | 326 kts | 163° |
| 2026-04-17 21:38 | 51.56176 | 7.67162 | 17187 ft | 326 kts | 163° |
| 2026-04-17 21:38 | 51.54040 | 7.68378 | 17187 ft | 326 kts | 163° |
| 2026-04-17 21:38 | 51.51895 | 7.69597 | 17188 ft | 326 kts | 163° |
| 2026-04-17 21:38 | 51.49753 | 7.70813 | 17189 ft | 326 kts | 163° |
| 2026-04-17 21:39 | 51.47613 | 7.72026 | 17187 ft | 326 kts | 163° |
| 2026-04-17 21:39 | 51.45467 | 7.73241 | 17188 ft | 326 kts | 163° |
| 2026-04-17 21:39 | 51.43309 | 7.74462 | 17189 ft | 326 kts | 163° |
| 2026-04-17 21:39 | 51.41154 | 7.75679 | 17186 ft | 327 kts | 163° |
| 2026-04-17 21:40 | 51.39028 | 7.76879 | 17184 ft | 326 kts | 163° |
| 2026-04-17 21:40 | 51.36869 | 7.78097 | 17191 ft | 326 kts | 163° |
| 2026-04-17 21:40 | 51.34726 | 7.79306 | 17187 ft | 327 kts | 163° |
| 2026-04-17 21:40 | 51.32566 | 7.80523 | 17189 ft | 327 kts | 163° |
| 2026-04-17 21:41 | 51.30405 | 7.81739 | 17184 ft | 327 kts | 163° |
| 2026-04-17 21:41 | 51.28283 | 7.82932 | 17187 ft | 326 kts | 163° |
| 2026-04-17 21:41 | 51.26139 | 7.84137 | 17190 ft | 326 kts | 163° |
| 2026-04-17 21:41 | 51.23977 | 7.85350 | 17206 ft | 326 kts | 163° |
| 2026-04-17 21:42 | 51.21826 | 7.86555 | 17212 ft | 326 kts | 163° |
| 2026-04-17 21:42 | 51.19727 | 7.87657 | 17184 ft | 316 kts | 169° |
| 2026-04-17 21:42 | 51.17570 | 7.88090 | 16990 ft | 308 kts | 182° |
| 2026-04-17 21:42 | 51.15475 | 7.87687 | 16719 ft | 303 kts | 197° |
| 2026-04-17 21:43 | 51.13504 | 7.86447 | 16456 ft | 303 kts | 209° |
| 2026-04-17 21:43 | 51.11602 | 7.84964 | 16236 ft | 305 kts | 208° |
| 2026-04-17 21:43 | 51.09754 | 7.83531 | 16221 ft | 306 kts | 209° |
| 2026-04-17 21:43 | 51.07949 | 7.81559 | 16206 ft | 305 kts | 224° |
| 2026-04-17 21:44 | 51.06570 | 7.78991 | 16202 ft | 305 kts | 238° |
| 2026-04-17 21:44 | 51.05679 | 7.75943 | 16206 ft | 304 kts | 253° |
| 2026-04-17 21:44 | 51.05149 | 7.72664 | 16222 ft | 305 kts | 256° |
| 2026-04-17 21:44 | 51.04616 | 7.69390 | 16226 ft | 305 kts | 256° |
| 2026-04-17 21:45 | 51.04083 | 7.66106 | 16221 ft | 306 kts | 256° |
| 2026-04-17 21:45 | 51.03556 | 7.62861 | 16145 ft | 306 kts | 256° |
| 2026-04-17 21:45 | 51.03027 | 7.59601 | 15884 ft | 304 kts | 256° |
| 2026-04-17 21:45 | 51.02497 | 7.56337 | 15526 ft | 305 kts | 256° |
| 2026-04-17 21:46 | 51.01973 | 7.53053 | 15210 ft | 304 kts | 256° |
| 2026-04-17 21:46 | 51.01438 | 7.49801 | 14923 ft | 303 kts | 256° |
| 2026-04-17 21:46 | 51.00908 | 7.46576 | 14605 ft | 303 kts | 256° |
| 2026-04-17 21:46 | 51.00373 | 7.43314 | 14303 ft | 303 kts | 256° |
| 2026-04-17 21:47 | 50.99843 | 7.40093 | 14102 ft | 299 kts | 256° |
| 2026-04-17 21:47 | 50.99321 | 7.36921 | 13841 ft | 299 kts | 256° |
| 2026-04-17 21:47 | 50.98799 | 7.33752 | 13491 ft | 293 kts | 255° |
| 2026-04-17 21:47 | 50.98286 | 7.30639 | 13004 ft | 290 kts | 255° |
| 2026-04-17 21:48 | 50.97788 | 7.27624 | 12543 ft | 287 kts | 255° |
| 2026-04-17 21:48 | 50.97292 | 7.24625 | 12079 ft | 284 kts | 255° |
| 2026-04-17 21:48 | 50.96799 | 7.21644 | 11574 ft | 269 kts | 255° |
| 2026-04-17 21:48 | 50.96336 | 7.18854 | 11076 ft | 255 kts | 255° |
| 2026-04-17 21:49 | 50.95918 | 7.16192 | 10582 ft | 244 kts | 255° |
| 2026-04-17 21:49 | 50.95480 | 7.13653 | 10151 ft | 233 kts | 252° |
| 2026-04-17 21:49 | 50.94904 | 7.11271 | 9743 ft | 234 kts | 245° |
| 2026-04-17 21:49 | 50.94188 | 7.08922 | 9356 ft | 237 kts | 244° |
| 2026-04-17 21:50 | 50.93477 | 7.06580 | 8963 ft | 239 kts | 244° |
| 2026-04-17 21:50 | 50.92758 | 7.04210 | 8571 ft | 240 kts | 244° |
| 2026-04-17 21:50 | 50.92025 | 7.01799 | 8177 ft | 242 kts | 244° |
| 2026-04-17 21:50 | 50.91299 | 6.99410 | 7785 ft | 243 kts | 244° |
| 2026-04-17 21:51 | 50.90564 | 6.96998 | 7384 ft | 243 kts | 244° |
| 2026-04-17 21:51 | 50.89831 | 6.94595 | 6994 ft | 244 kts | 244° |
| 2026-04-17 21:51 | 50.89105 | 6.92216 | 6610 ft | 244 kts | 244° |
| 2026-04-17 21:51 | 50.88386 | 6.89868 | 6238 ft | 243 kts | 243° |
| 2026-04-17 21:52 | 50.87442 | 6.87709 | 5855 ft | 242 kts | 234° |
| 2026-04-17 21:52 | 50.86669 | 6.85431 | 5499 ft | 241 kts | 244° |
| 2026-04-17 21:52 | 50.85905 | 6.82972 | 5110 ft | 242 kts | 244° |
| 2026-04-17 21:52 | 50.84872 | 6.80887 | 4688 ft | 244 kts | 217° |
| 2026-04-17 21:53 | 50.83331 | 6.79742 | 4322 ft | 244 kts | 195° |
| 2026-04-17 21:53 | 50.81661 | 6.79650 | 3935 ft | 247 kts | 169° |
| 2026-04-17 21:53 | 50.80120 | 6.80776 | 3548 ft | 244 kts | 143° |
| 2026-04-17 21:53 | 50.79011 | 6.82754 | 3155 ft | 241 kts | 120° |
| 2026-04-17 21:54 | 50.78501 | 6.85208 | 2990 ft | 228 kts | 96° |
| 2026-04-17 21:54 | 50.78571 | 6.87563 | 2966 ft | 203 kts | 76° |
| 2026-04-17 21:54 | 50.79049 | 6.89560 | 2970 ft | 188 kts | 64° |
| 2026-04-17 21:54 | 50.79605 | 6.91356 | 2964 ft | 172 kts | 63° |
| 2026-04-17 21:55 | 50.80116 | 6.93012 | 2969 ft | 167 kts | 63° |
| 2026-04-17 21:55 | 50.80637 | 6.94713 | 2719 ft | 180 kts | 64° |
| 2026-04-17 21:55 | 50.81199 | 6.96557 | 2459 ft | 188 kts | 64° |
| 2026-04-17 21:55 | 50.81753 | 6.98381 | 2198 ft | 180 kts | 63° |
| 2026-04-17 21:56 | 50.82283 | 7.00120 | 1956 ft | 171 kts | 63° |
| 2026-04-17 21:56 | 50.82786 | 7.01773 | 1727 ft | 163 kts | 63° |
| 2026-04-17 21:56 | 50.83265 | 7.03344 | 1510 ft | 156 kts | 63° |
| 2026-04-17 21:56 | 50.83736 | 7.04889 | 1297 ft | 150 kts | 63° |
| 2026-04-17 21:57 | 50.84170 | 7.06317 | 1104 ft | 138 kts | 63° |
| 2026-04-17 21:57 | 50.84564 | 7.07609 | 924 ft | 126 kts | 63° |
| 2026-04-17 21:57 | 50.84948 | 7.08865 | 753 ft | 127 kts | 63° |
| 2026-04-17 21:57 | 50.85339 | 7.10116 | 616 ft | 124 kts | 63° |
| 2026-04-17 21:58 | 50.85688 | 7.11300 | 439 ft | 114 kts | 64° |
| 2026-04-17 21:58 | 50.86016 | 7.12398 | 286 ft | 107 kts | 64° |
| 2026-04-17 21:58 | 50.86298 | 7.13320 | 247 ft | 66 kts | 64° |
| 2026-04-17 21:58 | 50.86423 | 7.13732 | 252 ft | 27 kts | 63° |
| 2026-04-17 21:59 | 50.86486 | 7.13937 | 254 ft | 17 kts | 65° |
| 2026-04-17 21:59 | 50.86548 | 7.14145 | 257 ft | 18 kts | 64° |
| 2026-04-17 21:59 | 50.86595 | 7.14302 | 259 ft | 11 kts | 61° |
| 2026-04-17 21:59 | 50.86658 | 7.14245 | 257 ft | 15 kts | 317° |
| 2026-04-17 22:00 | 50.86728 | 7.14139 | 254 ft | 14 kts | 296° |
| 2026-04-17 22:00 | 50.86683 | 7.13967 | 252 ft | 20 kts | 244° |
| 2026-04-17 22:00 | 50.86616 | 7.13744 | 249 ft | 19 kts | 246° |
| 2026-04-17 22:00 | 50.86553 | 7.13541 | 247 ft | 20 kts | 245° |
| 2026-04-17 22:01 | 50.86503 | 7.13373 | 245 ft | 11 kts | 246° |
| 2026-04-17 22:01 | 50.86534 | 7.13237 | 243 ft | 18 kts | 317° |
| 2026-04-17 22:01 | 50.86633 | 7.13091 | 240 ft | 15 kts | 317° |
| 2026-04-17 22:01 | 50.86714 | 7.12975 | 237 ft | 12 kts | 316° |
| 2026-04-17 22:02 | 50.86795 | 7.12860 | 235 ft | 17 kts | 318° |
| 2026-04-17 22:02 | 50.86888 | 7.12722 | 232 ft | 18 kts | 315° |
| 2026-04-17 22:02 | 50.86946 | 7.12638 | 231 ft | 14 kts | 319° |
| 2026-04-17 22:02 | 50.87007 | 7.12606 | 230 ft | 11 kts | 49° |
| 2026-04-17 22:03 | 50.87046 | 7.12632 | 230 ft | 0 kts | 352° |